Time;durP1;ratioP1;P1;durP2;ratioP2;P2;SDS_P1;SDS_P2;PMS_P1;PMS_P2;Temp;Humidity;BMP_temperature;BMP_pressure;BME280_temperature;BME280_humidity;BME280_pressure;Samples;Min_cycle;Max_cycle;Signal;HPM_P1;HPM_P2
2021/07/31 08:35:22;;;;;;;5.45;2.25;;;;;;;;;;2038642;27;1534773;-20
2021/07/31 08:36:23;;;;;;;3.60;2.17;;;;;;;;;;2083625;27;100015;-21
2021/07/31 08:37:24;;;;;;;2.20;2.00;;;;;;;;;;2080304;28;99976;-19
2021/07/31 08:38:25;;;;;;;3.13;2.10;;;;;;;;;;2080764;27;99968;-18
2021/07/31 08:39:27;;;;;;;5.22;2.30;;;;;;;;;;2071327;28;100157;-19
2021/07/31 08:40:29;;;;;;;3.17;2.45;;;;;;;;;;2076926;27;100696;-18
2021/07/31 08:41:30;;;;;;;3.33;1.90;;;;;;;;;;2079925;28;100013;-19
2021/07/31 08:42:31;;;;;;;3.03;1.90;;;;;;;;;;2071763;28;100013;-20
2021/07/31 08:43:33;;;;;;;2.35;1.95;;;;;;;;;;2070979;28;100618;-19
2021/07/31 08:44:35;;;;;;;2.55;1.98;;;;;;;;;;2071963;28;99864;-19
2021/07/31 08:45:38;;;;;;;2.08;1.75;;;;;;;;;;2088650;27;99974;-20
2021/07/31 08:46:43;;;;;;;2.20;1.75;;;;;;;;;;2080657;27;100034;-19
2021/07/31 08:47:49;;;;;;;4.20;1.98;;;;;;;;;;2080383;27;100127;-18
2021/07/31 08:48:51;;;;;;;3.78;1.83;;;;;;;;;;2080664;28;100004;-19
2021/07/31 08:49:52;;;;;;;3.50;2.15;;;;;;;;;;2071414;28;100508;-19
2021/07/31 08:50:58;;;;;;;2.40;2.10;;;;;;;;;;2063535;28;100136;-20
2021/07/31 08:52:01;;;;;;;2.90;2.30;;;;;;;;;;2064270;28;100165;-20
2021/07/31 08:53:02;;;;;;;2.38;2.00;;;;;;;;;;2063638;28;100029;-19
2021/07/31 08:54:02;;;;;;;;;;;;;;;;;;2073123;27;100059;-20
2021/07/31 08:55:04;;;;;;;2.17;1.92;;;;;;;;;;2089270;27;99886;-19
2021/07/31 08:56:05;;;;;;;3.17;2.35;;;;;;;;;;2081534;27;100162;-19
2021/07/31 08:57:09;;;;;;;3.20;1.90;;;;;;;;;;2054770;28;100095;-20
2021/07/31 08:58:10;;;;;;;2.47;1.92;;;;;;;;;;2048267;28;100694;-18
2021/07/31 08:59:11;;;;;;;;;;;;;;;;;;2071826;28;99887;-18
2021/07/31 09:00:12;;;;;;;3.60;2.10;;;;;;;;;;2071448;28;100009;-18
2021/07/31 09:01:13;;;;;;;3.53;2.05;;;;;;;;;;2063358;28;100035;-18
2021/07/31 09:02:14;;;;;;;;;;;;;;;;;;2072208;28;99878;-20
2021/07/31 09:03:15;;;;;;;4.15;1.67;;;;;;;;;;2071827;28;99890;-19
2021/07/31 09:04:17;;;;;;;3.30;1.92;;;;;;;;;;2071476;28;100003;-20
2021/07/31 09:05:41;;;;;;;3.25;1.90;;;;;;;;;;2080535;27;99858;-20
2021/07/31 09:06:44;;;;;;;1.88;1.75;;;;;;;;;;2071837;28;99958;-19
2021/07/31 09:07:48;;;;;;;3.55;2.10;;;;;;;;;;2071939;28;99896;-19
2021/07/31 09:08:53;;;;;;;3.05;2.00;;;;;;;;;;2080872;28;100461;-19
2021/07/31 09:09:54;;;;;;;3.95;1.88;;;;;;;;;;2080889;28;100363;-19
2021/07/31 09:11:03;;;;;;;5.20;1.80;;;;;;;;;;2080896;27;100120;-20
2021/07/31 09:12:07;;;;;;;4.22;2.00;;;;;;;;;;2072579;28;100236;-20
2021/07/31 09:13:14;;;;;;;1.95;1.73;;;;;;;;;;2063081;28;100112;-20
2021/07/31 09:14:16;;;;;;;1.92;1.55;;;;;;;;;;2064334;28;100011;-19
2021/07/31 09:15:38;;;;;;;2.67;2.00;;;;;;;;;;2072160;28;99964;-19
2021/07/31 09:16:44;;;;;;;2.53;1.70;;;;;;;;;;2063729;28;100224;-18
2021/07/31 09:17:45;;;;;;;1.95;1.80;;;;;;;;;;2064288;28;99998;-19
2021/07/31 09:18:46;;;;;;;2.33;1.90;;;;;;;;;;2072561;28;99976;-19
2021/07/31 09:19:47;;;;;;;2.75;1.70;;;;;;;;;;2072256;28;100173;-19
2021/07/31 09:20:54;;;;;;;;;;;;;;;;;;2072795;28;99988;-19
2021/07/31 09:22:07;;;;;;;3.97;1.90;;;;;;;;;;2063204;28;100181;-18
2021/07/31 09:23:11;;;;;;;2.15;1.70;;;;;;;;;;2064808;28;100082;-20
2021/07/31 09:24:22;;;;;;;2.08;1.77;;;;;;;;;;2072391;28;99940;-20
2021/07/31 09:25:23;;;;;;;1.85;1.75;;;;;;;;;;2071958;28;100165;-19
2021/07/31 09:26:31;;;;;;;2.83;1.80;;;;;;;;;;2071211;28;100014;-18
2021/07/31 09:27:32;;;;;;;2.78;1.90;;;;;;;;;;2071025;28;100041;-18
2021/07/31 09:28:32;;;;;;;;;;;;;;;;;;2072784;27;99940;-19
2021/07/31 09:29:37;;;;;;;3.42;2.03;;;;;;;;;;2071574;28;99994;-18
2021/07/31 09:30:50;;;;;;;2.42;2.00;;;;;;;;;;2072495;28;99936;-19
2021/07/31 09:32:01;;;;;;;3.15;2.17;;;;;;;;;;2080629;28;99943;-19
2021/07/31 09:33:03;;;;;;;2.55;1.90;;;;;;;;;;2071804;28;100585;-19
2021/07/31 09:34:04;;;;;;;1.90;1.80;;;;;;;;;;2071683;28;99992;-19
2021/07/31 09:35:20;;;;;;;2.35;1.90;;;;;;;;;;2071127;28;100525;-19
2021/07/31 09:36:21;;;;;;;2.25;1.85;;;;;;;;;;2067801;28;100423;-19
2021/07/31 09:37:25;;;;;;;;;;;;;;;;;;2075002;28;100028;-19
2021/07/31 09:38:45;;;;;;;2.35;1.80;;;;;;;;;;2074743;28;100326;-17
2021/07/31 09:39:57;;;;;;;6.15;2.08;;;;;;;;;;2074297;28;100199;-19
2021/07/31 09:40:58;;;;;;;2.72;1.73;;;;;;;;;;2072955;28;100547;-19
2021/07/31 09:42:05;;;;;;;2.85;1.70;;;;;;;;;;2066278;28;100069;-19
2021/07/31 09:43:18;;;;;;;2.33;1.83;;;;;;;;;;2066642;28;99983;-21
2021/07/31 09:44:22;;;;;;;3.45;1.65;;;;;;;;;;2040467;28;100375;-19
2021/07/31 09:45:33;;;;;;;2.72;1.83;;;;;;;;;;2026599;28;99975;-19
2021/07/31 09:46:49;;;;;;;2.03;1.52;;;;;;;;;;2052737;28;100400;-19
2021/07/31 09:48:04;;;;;;;2.20;1.85;;;;;;;;;;2057751;28;99976;-18
2021/07/31 09:49:11;;;;;;;2.28;2.08;;;;;;;;;;2062017;28;99977;-17
2021/07/31 09:50:54;;;;;;;2.33;1.60;;;;;;;;;;2066426;28;99986;-17
2021/07/31 09:51:58;;;;;;;2.97;1.77;;;;;;;;;;2072575;28;100023;-21
2021/07/31 09:53:24;;;;;;;3.58;1.73;;;;;;;;;;2048754;28;101889;-20
2021/07/31 09:54:26;;;;;;;3.65;2.13;;;;;;;;;;2057280;28;99980;-19
2021/07/31 09:55:27;;;;;;;3.60;2.00;;;;;;;;;;2065394;28;100261;-20
2021/07/31 09:56:31;;;;;;;3.15;1.70;;;;;;;;;;2050260;28;100529;-18
2021/07/31 09:57:32;;;;;;;1.73;1.63;;;;;;;;;;2041930;28;99957;-20
2021/07/31 09:58:36;;;;;;;;;;;;;;;;;;2049563;28;100048;-19
2021/07/31 09:59:43;;;;;;;6.13;2.17;;;;;;;;;;2066653;28;99955;-20
2021/07/31 10:00:46;;;;;;;2.58;1.90;;;;;;;;;;2066575;28;99926;-20
2021/07/31 10:01:56;;;;;;;3.47;1.48;;;;;;;;;;2066548;28;100203;-19
2021/07/31 10:02:57;;;;;;;3.33;1.88;;;;;;;;;;2066516;28;100047;-20
2021/07/31 10:03:58;;;;;;;;;;;;;;;;;;2066052;28;100094;-19
2021/07/31 10:04:59;;;;;;;2.85;2.08;;;;;;;;;;2065520;28;100046;-19
2021/07/31 10:06:00;;;;;;;1.90;1.80;;;;;;;;;;2074665;28;99890;-20
2021/07/31 10:07:02;;;;;;;3.80;1.80;;;;;;;;;;2074064;28;99937;-20
2021/07/31 10:08:09;;;;;;;3.05;1.85;;;;;;;;;;2065428;28;100439;-19
2021/07/31 10:09:11;;;;;;;3.40;1.80;;;;;;;;;;2066345;28;100078;-18
2021/07/31 10:10:17;;;;;;;2.40;1.77;;;;;;;;;;2065565;28;99871;-19
2021/07/31 10:11:18;;;;;;;2.88;2.00;;;;;;;;;;2057941;28;100070;-19
2021/07/31 10:12:27;;;;;;;2.83;1.95;;;;;;;;;;2057065;28;100149;-18
2021/07/31 10:13:32;;;;;;;1.77;1.67;;;;;;;;;;2058263;28;100324;-18
2021/07/31 10:14:33;;;;;;;3.13;2.00;;;;;;;;;;2065704;28;100039;-19
2021/07/31 10:15:34;;;;;;;1.73;1.55;;;;;;;;;;2066686;28;99912;-20
2021/07/31 10:16:43;;;;;;;3.13;1.83;;;;;;;;;;2049597;28;99969;-18
2021/07/31 10:17:44;;;;;;;2.22;1.90;;;;;;;;;;2035436;28;100531;-18
2021/07/31 10:18:58;;;;;;;;;;;;;;;;;;2050113;28;100056;-19
2021/07/31 10:20:00;;;;;;;9.32;2.75;;;;;;;;;;2066559;28;100109;-19
2021/07/31 10:21:09;;;;;;;11.82;4.03;;;;;;;;;;2066627;28;100687;-20
2021/07/31 10:22:11;;;;;;;9.52;3.90;;;;;;;;;;2066572;28;99924;-18
2021/07/31 10:23:12;;;;;;;7.75;3.65;;;;;;;;;;2066346;28;99895;-19
2021/07/31 10:24:13;;;;;;;;;;;;;;;;;;2066451;28;99868;-18
2021/07/31 10:25:15;;;;;;;5.75;3.28;;;;;;;;;;2066550;28;99879;-18
2021/07/31 10:26:16;;;;;;;9.45;3.70;;;;;;;;;;2066160;28;99930;-18
2021/07/31 10:27:17;;;;;;;;;;;;;;;;;;2057860;28;100591;-18
2021/07/31 10:28:26;;;;;;;5.07;3.05;;;;;;;;;;2057032;28;100443;-19
2021/07/31 10:29:33;;;;;;;6.05;3.10;;;;;;;;;;2065970;28;100003;-19
2021/07/31 10:30:38;;;;;;;7.22;3.17;;;;;;;;;;2065892;28;99895;-19
2021/07/31 10:31:39;;;;;;;5.32;3.05;;;;;;;;;;2066191;28;100015;-19
2021/07/31 10:32:41;;;;;;;4.93;2.75;;;;;;;;;;2065735;28;99970;-20
2021/07/31 10:33:46;;;;;;;6.22;2.85;;;;;;;;;;2057208;28;100199;-18
2021/07/31 10:34:56;;;;;;;5.70;2.97;;;;;;;;;;2056782;28;100054;-27
2021/07/31 10:36:27;;;;;;;7.55;3.10;;;;;;;;;;2057084;28;100054;-18
2021/07/31 10:37:31;;;;;;;6.40;2.80;;;;;;;;;;2057753;28;99985;-19
2021/07/31 10:38:33;;;;;;;4.15;2.55;;;;;;;;;;2057980;28;100054;-19
2021/07/31 10:39:34;;;;;;;4.07;2.78;;;;;;;;;;2056770;28;99992;-18
2021/07/31 10:40:47;;;;;;;;;;;;;;;;;;2057394;28;100028;-20
2021/07/31 10:42:07;;;;;;;6.28;2.58;;;;;;;;;;2057539;28;99929;-27
2021/07/31 10:43:11;;;;;;;5.68;2.60;;;;;;;;;;2056684;28;102053;-18
2021/07/31 10:44:12;;;;;;;6.97;2.95;;;;;;;;;;2056831;28;100119;-18
2021/07/31 10:45:15;;;;;;;;;;;;;;;;;;2057692;28;100598;-18
2021/07/31 10:46:19;;;;;;;5.22;2.90;;;;;;;;;;2057244;28;100322;-18
2021/07/31 10:47:20;;;;;;;5.63;2.72;;;;;;;;;;2057374;28;100001;-19
2021/07/31 10:48:22;;;;;;;;;;;;;;;;;;2056830;28;100001;-18
2021/07/31 10:49:37;;;;;;;5.30;2.80;;;;;;;;;;2058051;28;99820;-18
2021/07/31 10:50:39;;;;;;;7.78;3.05;;;;;;;;;;2059403;28;100023;-19
2021/07/31 10:51:41;;;;;;;4.97;2.63;;;;;;;;;;2056915;28;100077;-19
2021/07/31 10:52:52;;;;;;;5.78;2.85;;;;;;;;;;2056899;28;99958;-20
2021/07/31 10:53:53;;;;;;;4.13;2.63;;;;;;;;;;2065062;28;100030;-19
2021/07/31 10:55:00;;;;;;;9.25;3.00;;;;;;;;;;2063013;28;100094;-19
2021/07/31 10:56:02;;;;;;;8.13;3.33;;;;;;;;;;2060037;28;100007;-18
2021/07/31 10:57:03;;;;;;;6.15;3.00;;;;;;;;;;2057117;28;99962;-18
2021/07/31 10:58:17;;;;;;;4.57;2.75;;;;;;;;;;2073418;28;99939;-18
2021/07/31 10:59:19;;;;;;;6.50;2.88;;;;;;;;;;2069507;28;100062;-17
2021/07/31 11:00:27;;;;;;;4.95;2.55;;;;;;;;;;2056543;28;100251;-19
2021/07/31 11:01:28;;;;;;;5.13;2.92;;;;;;;;;;2062529;28;102080;-19
2021/07/31 11:02:33;;;;;;;;;;;;;;;;;;2066058;28;100150;-20
2021/07/31 11:03:34;;;;;;;4.18;2.55;;;;;;;;;;2065437;28;99849;-19
2021/07/31 11:04:53;;;;;;;;;;;;;;;;;;2066288;28;99935;-19
2021/07/31 11:05:54;;;;;;;5.70;2.78;;;;;;;;;;2065197;28;100038;-18
2021/07/31 11:07:11;;;;;;;5.60;3.03;;;;;;;;;;2060855;28;100023;-18
2021/07/31 11:08:12;;;;;;;5.18;2.83;;;;;;;;;;2062047;28;100086;-18
2021/07/31 11:09:13;;;;;;;;;;;;;;;;;;2057253;28;100037;-18
2021/07/31 11:10:41;;;;;;;6.82;2.90;;;;;;;;;;2056559;28;100164;-19
2021/07/31 11:11:43;;;;;;;4.40;2.30;;;;;;;;;;2065080;28;99881;-19
2021/07/31 11:12:44;;;;;;;;;;;;;;;;;;2060218;28;99951;-18
2021/07/31 11:13:44;;;;;;;4.20;2.70;;;;;;;;;;2056704;28;99963;-19
2021/07/31 11:15:05;;;;;;;;;;;;;;;;;;2057237;28;100029;-19
2021/07/31 11:16:13;;;;;;;5.15;2.80;;;;;;;;;;2057051;28;100311;-18
2021/07/31 11:17:17;;;;;;;3.45;2.45;;;;;;;;;;2056475;28;100008;-18
2021/07/31 11:18:17;;;;;;;6.20;2.60;;;;;;;;;;2055753;28;100881;-18
2021/07/31 11:19:38;;;;;;;;;;;;;;;;;;2057500;28;100120;-19
2021/07/31 11:20:40;;;;;;;5.43;2.58;;;;;;;;;;2057260;28;100020;-19
2021/07/31 11:21:49;;;;;;;5.90;2.42;;;;;;;;;;2057426;28;100050;-19
2021/07/31 11:22:53;;;;;;;3.15;2.53;;;;;;;;;;2062907;28;99982;-18
2021/07/31 11:23:57;;;;;;;8.85;6.20;;;;;;;;;;2064790;28;100428;-18
2021/07/31 11:24:58;;;;;;;43.58;28.63;;;;;;;;;;2056731;28;100125;-20
2021/07/31 11:25:59;;;;;;;45.75;30.75;;;;;;;;;;2056519;28;100179;-19
2021/07/31 11:27:00;;;;;;;45.50;30.60;;;;;;;;;;2057129;28;100241;-18
2021/07/31 11:28:04;;;;;;;;;;;;;;;;;;2056784;28;100143;-20
2021/07/31 11:29:13;;;;;;;31.33;20.52;;;;;;;;;;2056879;28;100141;-18
2021/07/31 11:30:14;;;;;;;22.77;13.75;;;;;;;;;;2057562;28;101137;-19
2021/07/31 11:31:18;;;;;;;;;;;;;;;;;;2065348;28;100249;-19
2021/07/31 11:32:27;;;;;;;27.77;14.85;;;;;;;;;;2065432;28;100105;-20
2021/07/31 11:33:28;;;;;;;26.15;15.20;;;;;;;;;;2065464;28;100426;-19
2021/07/31 11:34:40;;;;;;;19.63;13.52;;;;;;;;;;2064302;28;100010;-19
2021/07/31 11:35:44;;;;;;;33.00;21.35;;;;;;;;;;2064806;28;100142;-18
2021/07/31 11:36:54;;;;;;;29.63;19.63;;;;;;;;;;2065515;28;99884;-20
2021/07/31 11:37:58;;;;;;;31.33;21.33;;;;;;;;;;2065905;28;100366;-19
2021/07/31 11:39:01;;;;;;;;;;;;;;;;;;2065042;28;100095;-19
2021/07/31 11:40:03;;;;;;;30.08;17.92;;;;;;;;;;2065324;28;99971;-19
2021/07/31 11:41:11;;;;;;;24.30;17.52;;;;;;;;;;2065606;28;99997;-19
2021/07/31 11:42:23;;;;;;;23.52;15.88;;;;;;;;;;2065652;28;99876;-20
2021/07/31 11:43:24;;;;;;;21.52;14.85;;;;;;;;;;2064680;28;100059;-18
2021/07/31 11:44:27;;;;;;;21.33;13.80;;;;;;;;;;2064670;28;100044;-19
2021/07/31 11:45:29;;;;;;;19.17;13.80;;;;;;;;;;2065206;28;99892;-19
2021/07/31 11:46:41;;;;;;;21.60;13.25;;;;;;;;;;2065558;28;100129;-19
2021/07/31 11:47:42;;;;;;;21.08;11.40;;;;;;;;;;2065418;28;99986;-19
2021/07/31 11:48:46;;;;;;;19.85;11.45;;;;;;;;;;2064737;28;99928;-18
2021/07/31 11:49:47;;;;;;;16.63;11.95;;;;;;;;;;2064956;28;100100;-18
2021/07/31 11:51:02;;;;;;;;;;;;;;;;;;2065553;28;100210;-18
2021/07/31 11:52:05;;;;;;;17.85;10.38;;;;;;;;;;2065364;28;100011;-19
2021/07/31 11:53:24;;;;;;;17.83;9.40;;;;;;;;;;2056562;28;100142;-19
2021/07/31 11:54:27;;;;;;;16.02;10.25;;;;;;;;;;2062583;28;100067;-20
2021/07/31 11:55:28;;;;;;;18.60;11.30;;;;;;;;;;2056810;28;99989;-19
2021/07/31 11:56:29;;;;;;;20.15;12.68;;;;;;;;;;2057512;28;100027;-19
2021/07/31 11:57:30;;;;;;;18.90;12.88;;;;;;;;;;2063796;28;100218;-19
2021/07/31 11:58:31;;;;;;;;;;;;;;;;;;2064887;28;99982;-20
2021/07/31 11:59:39;;;;;;;20.25;12.32;;;;;;;;;;2072774;28;100586;-20
2021/07/31 12:00:40;;;;;;;18.00;11.43;;;;;;;;;;2063902;28;100025;-18
2021/07/31 12:01:47;;;;;;;17.35;11.23;;;;;;;;;;2056083;28;100308;-23
2021/07/31 12:02:48;;;;;;;17.77;12.43;;;;;;;;;;2055573;28;100135;-18
2021/07/31 12:03:51;;;;;;;19.75;12.02;;;;;;;;;;2055537;28;100118;-20
2021/07/31 12:04:53;;;;;;;22.70;11.95;;;;;;;;;;2055771;28;100278;-19
2021/07/31 12:05:54;;;;;;;23.98;11.30;;;;;;;;;;2055262;28;100128;-19
2021/07/31 12:07:06;;;;;;;;;;;;;;;;;;2055931;28;100503;-19
2021/07/31 12:08:08;;;;;;;18.17;11.15;;;;;;;;;;2056517;28;100070;-20
2021/07/31 12:09:18;;;;;;;19.15;11.00;;;;;;;;;;2063277;28;100011;-19
2021/07/31 12:10:19;;;;;;;16.50;10.70;;;;;;;;;;2064276;28;100064;-19
2021/07/31 12:11:36;;;;;;;;;;;;;;;;;;2064485;28;100046;-20
2021/07/31 12:12:42;;;;;;;21.73;10.63;;;;;;;;;;2064893;28;100475;-18
2021/07/31 12:13:43;;;;;;;15.50;10.23;;;;;;;;;;2064492;28;100002;-19
2021/07/31 12:14:43;;;;;;;;;;;;;;;;;;2065120;28;100464;-18
2021/07/31 12:15:44;;;;;;;19.50;9.88;;;;;;;;;;2062562;28;100410;-20
2021/07/31 12:16:45;;;;;;;;;;;;;;;;;;2063996;28;100029;-18
2021/07/31 12:18:05;;;;;;;15.85;7.57;;;;;;;;;;2059669;28;100220;-19
2021/07/31 12:19:06;;;;;;;13.68;7.72;;;;;;;;;;2061012;28;100571;-20
2021/07/31 12:20:08;;;;;;;11.35;7.10;;;;;;;;;;2062151;28;99998;-17
2021/07/31 12:21:23;;;;;;;10.82;6.57;;;;;;;;;;2058471;28;99937;-22
2021/07/31 12:22:29;;;;;;;13.02;5.97;;;;;;;;;;2060081;28;99949;-19
2021/07/31 12:23:34;;;;;;;10.57;6.30;;;;;;;;;;2057232;28;99923;-20
2021/07/31 12:24:36;;;;;;;13.45;6.05;;;;;;;;;;2056737;28;99967;-19
2021/07/31 12:25:56;;;;;;;12.75;5.97;;;;;;;;;;2062143;28;100368;-18
2021/07/31 12:26:57;;;;;;;8.40;5.00;;;;;;;;;;2057144;28;100776;-19
2021/07/31 12:28:12;;;;;;;11.52;5.53;;;;;;;;;;2056967;28;99994;-19
2021/07/31 12:29:36;;;;;;;9.75;4.97;;;;;;;;;;2056800;28;99859;-19
2021/07/31 12:30:41;;;;;;;9.02;5.20;;;;;;;;;;2056263;28;100096;-17
2021/07/31 12:31:42;;;;;;;8.85;4.82;;;;;;;;;;2049013;28;99961;-18
2021/07/31 12:32:45;;;;;;;;;;;;;;;;;;2056657;28;99941;-17
2021/07/31 12:33:46;;;;;;;8.77;4.78;;;;;;;;;;2057367;28;100498;-18
2021/07/31 12:34:48;;;;;;;;;;;;;;;;;;2058648;28;101188;-17
2021/07/31 12:35:52;;;;;;;7.40;4.72;;;;;;;;;;2065193;28;99966;-17
2021/07/31 12:36:54;;;;;;;8.20;4.97;;;;;;;;;;2065017;28;99915;-17
2021/07/31 12:37:55;;;;;;;6.68;4.70;;;;;;;;;;2065365;28;100031;-17
2021/07/31 12:38:57;;;;;;;9.70;5.18;;;;;;;;;;2056013;28;100136;-18
2021/07/31 12:39:58;;;;;;;7.32;4.60;;;;;;;;;;2048172;28;100108;-17
2021/07/31 12:41:00;;;;;;;;;;;;;;;;;;2056445;28;100128;-17
2021/07/31 12:42:01;;;;;;;7.43;4.30;;;;;;;;;;2056136;28;99989;-17
2021/07/31 12:43:05;;;;;;;9.77;4.43;;;;;;;;;;2056001;28;99899;-18
2021/07/31 12:44:06;;;;;;;9.35;4.70;;;;;;;;;;2065371;28;100065;-18
2021/07/31 12:45:11;;;;;;;;;;;;;;;;;;2074026;28;100215;-18
2021/07/31 12:46:12;;;;;;;7.18;3.90;;;;;;;;;;2072330;28;99986;-20
2021/07/31 12:47:12;;;;;;;;;;;;;;;;;;2065879;28;99820;-18
2021/07/31 12:48:15;;;;;;;7.47;3.92;;;;;;;;;;2064901;28;100012;-18
2021/07/31 12:49:19;;;;;;;6.32;3.80;;;;;;;;;;2065305;28;100165;-17
2021/07/31 12:50:20;;;;;;;8.18;3.78;;;;;;;;;;2066914;28;100426;-18
2021/07/31 12:51:22;;;;;;;7.15;3.95;;;;;;;;;;2073102;28;100127;-18
2021/07/31 12:52:26;;;;;;;7.88;4.25;;;;;;;;;;2071283;28;99963;-18
2021/07/31 12:53:29;;;;;;;9.40;4.30;;;;;;;;;;2065100;28;100028;-18
2021/07/31 12:54:30;;;;;;;8.38;4.40;;;;;;;;;;2068090;28;100124;-18
2021/07/31 12:55:31;;;;;;;;;;;;;;;;;;2073701;28;99880;-18
2021/07/31 12:56:32;;;;;;;8.82;3.90;;;;;;;;;;2064315;28;99998;-18
2021/07/31 12:57:33;;;;;;;7.13;4.25;;;;;;;;;;2064611;28;100049;-19
2021/07/31 12:58:34;;;;;;;7.03;4.50;;;;;;;;;;2060469;28;101271;-19
2021/07/31 12:59:35;;;;;;;;;;;;;;;;;;2056833;28;100017;-18
2021/07/31 13:00:37;;;;;;;7.18;4.07;;;;;;;;;;2068166;28;99992;-19
2021/07/31 13:01:38;;;;;;;8.10;4.20;;;;;;;;;;2064273;28;100044;-20
2021/07/31 13:02:38;;;;;;;;;;;;;;;;;;2064788;28;100621;-18
2021/07/31 13:03:39;;;;;;;5.55;4.20;;;;;;;;;;2073373;28;99993;-21
2021/07/31 13:04:41;;;;;;;8.20;4.22;;;;;;;;;;2073043;28;100044;-24
2021/07/31 13:05:42;;;;;;;6.30;3.88;;;;;;;;;;2064675;28;100250;-20
2021/07/31 13:06:43;;;;;;;10.00;4.60;;;;;;;;;;2060235;28;100085;-19
2021/07/31 13:07:44;;;;;;;7.30;3.83;;;;;;;;;;2056297;28;99946;-20
2021/07/31 13:08:45;;;;;;;7.65;4.38;;;;;;;;;;2060350;28;99881;-21
2021/07/31 13:09:46;;;;;;;7.60;4.07;;;;;;;;;;2073324;28;100051;-19
2021/07/31 13:10:49;;;;;;;4.97;3.45;;;;;;;;;;2073017;28;99969;-20
2021/07/31 13:11:52;;;;;;;6.68;3.80;;;;;;;;;;2066085;28;100067;-19
2021/07/31 13:12:54;;;;;;;7.60;4.03;;;;;;;;;;2065759;28;100002;-19
2021/07/31 13:13:55;;;;;;;5.22;3.88;;;;;;;;;;2073090;28;99931;-18
2021/07/31 13:14:56;;;;;;;;;;;;;;;;;;2069015;28;99997;-19
2021/07/31 13:15:57;;;;;;;6.18;3.50;;;;;;;;;;2066726;28;99984;-19
2021/07/31 13:16:58;;;;;;;5.90;3.60;;;;;;;;;;2066582;28;100062;-19
2021/07/31 13:17:59;;;;;;;7.15;3.38;;;;;;;;;;2058116;28;99940;-17
2021/07/31 13:19:00;;;;;;;6.15;3.50;;;;;;;;;;2049167;28;99838;-18
2021/07/31 13:20:05;;;;;;;8.73;3.63;;;;;;;;;;2042038;28;99908;-19
2021/07/31 13:21:06;;;;;;;7.57;4.03;;;;;;;;;;2040596;28;100140;-19
2021/07/31 13:22:07;;;;;;;6.68;3.60;;;;;;;;;;2049572;28;99970;-19
2021/07/31 13:23:11;;;;;;;7.55;3.60;;;;;;;;;;2057956;28;99996;-17
2021/07/31 13:24:13;;;;;;;9.30;3.75;;;;;;;;;;2066701;28;99986;-18
2021/07/31 13:25:14;;;;;;;7.05;3.80;;;;;;;;;;2066666;28;100308;-19
2021/07/31 13:26:15;;;;;;;5.75;3.60;;;;;;;;;;2057751;28;99997;-18
2021/07/31 13:27:15;;;;;;;;;;;;;;;;;;2065571;28;100059;-18
2021/07/31 13:28:16;;;;;;;4.50;3.53;;;;;;;;;;2075014;28;99929;-19
2021/07/31 13:29:17;;;;;;;6.22;3.20;;;;;;;;;;2067937;28;99993;-18
2021/07/31 13:30:18;;;;;;;;;;;;;;;;;;2075362;28;99951;-18
2021/07/31 13:31:19;;;;;;;6.03;3.45;;;;;;;;;;2066583;28;99990;-19
2021/07/31 13:32:20;;;;;;;8.85;3.38;;;;;;;;;;2066167;28;99968;-20
2021/07/31 13:33:22;;;;;;;6.50;3.63;;;;;;;;;;2065681;28;99969;-20
2021/07/31 13:34:23;;;;;;;4.22;3.08;;;;;;;;;;2065889;28;100002;-19
2021/07/31 13:35:24;;;;;;;;;;;;;;;;;;2057431;28;100199;-19
2021/07/31 13:36:28;;;;;;;6.45;3.00;;;;;;;;;;2057721;28;99820;-20
2021/07/31 13:37:42;;;;;;;4.78;3.20;;;;;;;;;;2057818;28;100009;-19
2021/07/31 13:38:50;;;;;;;4.53;3.17;;;;;;;;;;2051748;28;99966;-24
2021/07/31 13:39:53;;;;;;;7.20;3.35;;;;;;;;;;2058563;28;99876;-19
2021/07/31 13:40:54;;;;;;;5.55;3.30;;;;;;;;;;2062452;28;100266;-19
2021/07/31 13:41:57;;;;;;;5.55;3.13;;;;;;;;;;2065718;28;99888;-19
2021/07/31 13:43:01;;;;;;;7.05;3.45;;;;;;;;;;2061262;28;99998;-18
2021/07/31 13:44:16;;;;;;;7.53;3.40;;;;;;;;;;2057680;28;99991;-18
2021/07/31 13:45:18;;;;;;;6.70;3.53;;;;;;;;;;2073167;28;100161;-18
2021/07/31 13:46:19;;;;;;;6.22;3.55;;;;;;;;;;2074341;28;99945;-20
2021/07/31 13:47:20;;;;;;;9.85;4.30;;;;;;;;;;2065009;28;99892;-19
2021/07/31 13:48:21;;;;;;;6.15;3.65;;;;;;;;;;2065625;28;99884;-18
2021/07/31 13:49:22;;;;;;;;;;;;;;;;;;2067179;28;99942;-18
2021/07/31 13:50:23;;;;;;;6.53;3.92;;;;;;;;;;2057057;28;100128;-19
2021/07/31 13:51:24;;;;;;;10.50;3.60;;;;;;;;;;2057259;28;99958;-19
2021/07/31 13:52:25;;;;;;;;;;;;;;;;;;2057375;28;99938;-19
2021/07/31 13:53:26;;;;;;;5.75;3.53;;;;;;;;;;2056399;28;100173;-19
2021/07/31 13:54:27;;;;;;;7.15;3.35;;;;;;;;;;2049307;28;100133;-19
2021/07/31 13:55:28;;;;;;;6.45;3.30;;;;;;;;;;2048935;28;100121;-19
2021/07/31 13:56:31;;;;;;;7.63;3.38;;;;;;;;;;2041231;28;100141;-18
2021/07/31 13:57:34;;;;;;;9.50;3.67;;;;;;;;;;2057322;28;99949;-19
2021/07/31 13:58:37;;;;;;;5.50;3.35;;;;;;;;;;2048737;28;100292;-17
2021/07/31 13:59:38;;;;;;;6.20;3.33;;;;;;;;;;2057926;28;100165;-19
2021/07/31 14:00:41;;;;;;;;;;;;;;;;;;2066557;28;100020;-19
2021/07/31 14:01:42;;;;;;;7.75;3.78;;;;;;;;;;2066372;28;99992;-19
2021/07/31 14:02:43;;;;;;;;;;;;;;;;;;2066388;28;99962;-20
2021/07/31 14:03:44;;;;;;;6.72;3.22;;;;;;;;;;2066292;28;99885;-19
2021/07/31 14:04:45;;;;;;;5.68;3.38;;;;;;;;;;2066027;28;99954;-20
2021/07/31 14:05:46;;;;;;;;;;;;;;;;;;2066720;28;99928;-20
2021/07/31 14:06:49;;;;;;;5.68;3.13;;;;;;;;;;2065794;28;99955;-18
2021/07/31 14:07:50;;;;;;;8.15;3.50;;;;;;;;;;2066214;28;99987;-20
2021/07/31 14:08:51;;;;;;;;;;;;;;;;;;2066641;28;99963;-19
2021/07/31 14:09:52;;;;;;;5.80;3.33;;;;;;;;;;2049447;28;100559;-20
2021/07/31 14:10:53;;;;;;;;;;;;;;;;;;2053879;28;99992;-19
2021/07/31 14:11:53;;;;;;;7.73;3.37;;;;;;;;;;2070340;28;100187;-18
2021/07/31 14:12:54;;;;;;;;;;;;;;;;;;2066203;28;99948;-19
2021/07/31 14:13:55;;;;;;;4.95;3.22;;;;;;;;;;2066283;28;100241;-18
2021/07/31 14:14:56;;;;;;;9.40;3.45;;;;;;;;;;2069020;28;100209;-19
2021/07/31 14:15:57;;;;;;;;;;;;;;;;;;2074948;28;99810;-19
2021/07/31 14:16:58;;;;;;;4.93;3.28;;;;;;;;;;2070886;28;100575;-19
2021/07/31 14:17:59;;;;;;;;;;;;;;;;;;2057867;28;100150;-19
2021/07/31 14:19:00;;;;;;;6.72;2.97;;;;;;;;;;2057246;28;100257;-19
2021/07/31 14:20:01;;;;;;;;;;;;;;;;;;2066713;28;99963;-18
2021/07/31 14:21:06;;;;;;;9.93;3.13;;;;;;;;;;2066280;28;99897;-20
2021/07/31 14:22:07;;;;;;;6.35;3.40;;;;;;;;;;2066231;28;99966;-19
2021/07/31 14:23:11;;;;;;;;;;;;;;;;;;2070143;28;100551;-18
2021/07/31 14:24:11;;;;;;;5.65;3.28;;;;;;;;;;2074190;28;99970;-19
2021/07/31 14:25:12;;;;;;;;;;;;;;;;;;2069703;28;99964;-19
2021/07/31 14:26:13;;;;;;;5.75;3.47;;;;;;;;;;2065966;28;100098;-19
2021/07/31 14:27:14;;;;;;;5.70;3.03;;;;;;;;;;2065725;28;99957;-19
2021/07/31 14:28:15;;;;;;;;;;;;;;;;;;2066783;28;99924;-19
2021/07/31 14:29:16;;;;;;;9.93;3.58;;;;;;;;;;2065900;28;100078;-18
2021/07/31 14:30:16;;;;;;;;;;;;;;;;;;2066538;28;100062;-19
2021/07/31 14:31:17;;;;;;;5.65;3.40;;;;;;;;;;2060045;28;100139;-18
2021/07/31 14:32:18;;;;;;;;;;;;;;;;;;2058680;28;100164;-19
2021/07/31 14:33:21;;;;;;;5.10;3.17;;;;;;;;;;2059053;28;100228;-19
2021/07/31 14:34:24;;;;;;;6.28;3.53;;;;;;;;;;2057535;28;99898;-18
2021/07/31 14:35:25;;;;;;;5.13;2.90;;;;;;;;;;2062505;28;100140;-18
2021/07/31 14:36:26;;;;;;;;;;;;;;;;;;2057521;28;99862;-19
2021/07/31 14:37:27;;;;;;;4.25;3.13;;;;;;;;;;2056879;28;100266;-19
2021/07/31 14:38:29;;;;;;;5.32;2.95;;;;;;;;;;2065632;28;100009;-18
2021/07/31 14:39:36;;;;;;;7.90;3.53;;;;;;;;;;2067070;28;100019;-19
2021/07/31 14:40:37;;;;;;;5.88;3.30;;;;;;;;;;2056848;28;99965;-19
2021/07/31 14:41:37;;;;;;;;;;;;;;;;;;2056885;28;100353;-18
2021/07/31 14:42:38;;;;;;;6.90;3.35;;;;;;;;;;2065501;28;100623;-19
2021/07/31 14:43:40;;;;;;;6.25;3.03;;;;;;;;;;2065669;28;100620;-19
2021/07/31 14:44:41;;;;;;;;;;;;;;;;;;2057524;28;100054;-18
2021/07/31 14:45:42;;;;;;;5.15;3.20;;;;;;;;;;2056950;28;99912;-19
2021/07/31 14:46:42;;;;;;;;;;;;;;;;;;2066494;28;99904;-20
2021/07/31 14:47:43;;;;;;;4.43;2.97;;;;;;;;;;2073961;28;100132;-19
2021/07/31 14:48:45;;;;;;;8.35;3.30;;;;;;;;;;2073518;28;100277;-20
2021/07/31 14:49:48;;;;;;;7.25;3.20;;;;;;;;;;2073447;28;100309;-18
2021/07/31 14:50:48;;;;;;;5.47;2.92;;;;;;;;;;2065099;28;100352;-19
2021/07/31 14:51:49;;;;;;;;;;;;;;;;;;2065598;28;100270;-19
2021/07/31 14:52:50;;;;;;;5.50;3.08;;;;;;;;;;2067768;28;100809;-19
2021/07/31 14:53:51;;;;;;;;;;;;;;;;;;2065697;28;100015;-18
2021/07/31 14:54:52;;;;;;;6.50;3.28;;;;;;;;;;2070062;28;99897;-17
2021/07/31 14:55:55;;;;;;;;;;;;;;;;;;2074557;28;99882;-18
2021/07/31 14:56:56;;;;;;;7.05;2.88;;;;;;;;;;2064807;28;100535;-19
2021/07/31 14:57:57;;;;;;;5.90;3.42;;;;;;;;;;2049147;28;100238;-19
2021/07/31 14:58:59;;;;;;;7.03;3.15;;;;;;;;;;2031749;28;101536;-20
2021/07/31 15:00:00;;;;;;;;;;;;;;;;;;2049561;28;99924;-19
2021/07/31 15:01:01;;;;;;;9.05;3.08;;;;;;;;;;2055013;28;100050;-19
2021/07/31 15:02:02;;;;;;;6.30;3.45;;;;;;;;;;2057611;28;100047;-18